sensor_id;sensor_type;location;lat;lon;timestamp;pressure;altitude;pressure_sealevel;temperature;humidity
30554;BME280;17335;50.720;7.452;2024-01-11T00:00:29;100595.81;;;-7.58;100.00
30554;BME280;17335;50.720;7.452;2024-01-11T00:02:56;100602.78;;;-7.61;100.00
30554;BME280;17335;50.720;7.452;2024-01-11T00:05:22;100607.09;;;-7.62;100.00
30554;BME280;17335;50.720;7.452;2024-01-11T00:07:49;100600.16;;;-7.63;100.00
30554;BME280;17335;50.720;7.452;2024-01-11T00:10:16;100605.38;;;-7.63;100.00
30554;BME280;17335;50.720;7.452;2024-01-11T00:12:42;100601.91;;;-7.68;100.00
30554;BME280;17335;50.720;7.452;2024-01-11T00:15:09;100603.63;;;-7.73;100.00
30554;BME280;17335;50.720;7.452;2024-01-11T00:17:36;100609.69;;;-7.77;100.00
30554;BME280;17335;50.720;7.452;2024-01-11T00:20:03;100611.44;;;-7.79;100.00
30554;BME280;17335;50.720;7.452;2024-01-11T00:22:29;100611.44;;;-7.79;100.00
30554;BME280;17335;50.720;7.452;2024-01-11T00:24:56;100615.78;;;-7.81;100.00
30554;BME280;17335;50.720;7.452;2024-01-11T00:27:22;100616.66;;;-7.85;100.00
30554;BME280;17335;50.720;7.452;2024-01-11T00:29:49;100603.63;;;-7.79;100.00
30554;BME280;17335;50.720;7.452;2024-01-11T00:32:15;100609.72;;;-7.80;100.00
30554;BME280;17335;50.720;7.452;2024-01-11T00:34:42;100604.50;;;-7.83;100.00
30554;BME280;17335;50.720;7.452;2024-01-11T00:37:08;100598.41;;;-7.84;100.00
30554;BME280;17335;50.720;7.452;2024-01-11T00:39:35;100614.94;;;-7.82;100.00
30554;BME280;17335;50.720;7.452;2024-01-11T00:42:01;100616.66;;;-7.79;100.00
30554;BME280;17335;50.720;7.452;2024-01-11T00:44:28;100615.78;;;-7.69;100.00
30554;BME280;17335;50.720;7.452;2024-01-11T00:46:54;100614.94;;;-7.66;100.00
30554;BME280;17335;50.720;7.452;2024-01-11T00:49:21;100616.69;;;-7.70;100.00
30554;BME280;17335;50.720;7.452;2024-01-11T00:51:47;100609.72;;;-7.69;100.00
30554;BME280;17335;50.720;7.452;2024-01-11T00:54:14;100619.28;;;-7.71;100.00
30554;BME280;17335;50.720;7.452;2024-01-11T00:56:40;100623.63;;;-7.75;100.00
30554;BME280;17335;50.720;7.452;2024-01-11T00:59:07;100615.78;;;-7.81;100.00
30554;BME280;17335;50.720;7.452;2024-01-11T01:01:33;100624.47;;;-7.90;100.00
30554;BME280;17335;50.720;7.452;2024-01-11T01:04:00;100614.03;;;-7.95;100.00
30554;BME280;17335;50.720;7.452;2024-01-11T01:06:27;100624.47;;;-7.93;100.00
30554;BME280;17335;50.720;7.452;2024-01-11T01:08:55;100626.19;;;-7.97;100.00
30554;BME280;17335;50.720;7.452;2024-01-11T01:11:22;100618.38;;;-7.94;100.00
30554;BME280;17335;50.720;7.452;2024-01-11T01:13:48;100617.50;;;-7.93;100.00
30554;BME280;17335;50.720;7.452;2024-01-11T01:16:15;100614.91;;;-7.96;100.00
30554;BME280;17335;50.720;7.452;2024-01-11T01:18:43;100618.38;;;-7.94;100.00
30554;BME280;17335;50.720;7.452;2024-01-11T01:21:09;100620.97;;;-7.87;100.00
30554;BME280;17335;50.720;7.452;2024-01-11T01:23:36;100621.88;;;-7.88;100.00
30554;BME280;17335;50.720;7.452;2024-01-11T01:26:03;100620.13;;;-7.91;100.00
30554;BME280;17335;50.720;7.452;2024-01-11T01:28:32;100621.00;;;-7.90;100.00
30554;BME280;17335;50.720;7.452;2024-01-11T01:30:59;100636.66;;;-7.89;100.00
30554;BME280;17335;50.720;7.452;2024-01-11T01:33:25;100634.03;;;-7.92;100.00
30554;BME280;17335;50.720;7.452;2024-01-11T01:35:52;100637.50;;;-7.99;100.00
30554;BME280;17335;50.720;7.452;2024-01-11T01:38:18;100628.78;;;-8.00;100.00
30554;BME280;17335;50.720;7.452;2024-01-11T01:40:45;100634.88;;;-8.01;100.00
30554;BME280;17335;50.720;7.452;2024-01-11T01:43:11;100627.03;;;-7.98;100.00
30554;BME280;17335;50.720;7.452;2024-01-11T01:45:39;100634.03;;;-7.95;100.00
30554;BME280;17335;50.720;7.452;2024-01-11T01:48:06;100633.13;;;-8.02;100.00
30554;BME280;17335;50.720;7.452;2024-01-11T01:50:33;100643.56;;;-8.02;100.00
30554;BME280;17335;50.720;7.452;2024-01-11T01:53:00;100640.09;;;-7.95;100.00
30554;BME280;17335;50.720;7.452;2024-01-11T01:55:28;100638.34;;;-8.02;100.00
30554;BME280;17335;50.720;7.452;2024-01-11T01:57:56;100640.97;;;-7.99;100.00
30554;BME280;17335;50.720;7.452;2024-01-11T02:00:23;100647.91;;;-8.02;100.00
30554;BME280;17335;50.720;7.452;2024-01-11T02:02:51;100642.69;;;-8.05;100.00
30554;BME280;17335;50.720;7.452;2024-01-11T02:05:19;100639.19;;;-8.11;100.00
30554;BME280;17335;50.720;7.452;2024-01-11T02:07:46;100640.03;;;-8.21;100.00
30554;BME280;17335;50.720;7.452;2024-01-11T02:10:12;100647.00;;;-8.21;100.00
30554;BME280;17335;50.720;7.452;2024-01-11T02:12:39;100644.38;;;-8.21;100.00
30554;BME280;17335;50.720;7.452;2024-01-11T02:15:06;100633.06;;;-8.23;100.00
30554;BME280;17335;50.720;7.452;2024-01-11T02:17:33;100638.28;;;-8.22;100.00
30554;BME280;17335;50.720;7.452;2024-01-11T02:20:00;100638.31;;;-8.17;100.00
30554;BME280;17335;50.720;7.452;2024-01-11T02:22:34;100638.31;;;-8.17;100.00
30554;BME280;17335;50.720;7.452;2024-01-11T02:25:01;100635.72;;;-8.14;100.00
30554;BME280;17335;50.720;7.452;2024-01-11T02:27:28;100636.56;;;-8.20;100.00
30554;BME280;17335;50.720;7.452;2024-01-11T02:29:54;100641.78;;;-8.21;100.00
30554;BME280;17335;50.720;7.452;2024-01-11T02:32:21;100641.75;;;-8.18;100.00
30554;BME280;17335;50.720;7.452;2024-01-11T02:34:48;100646.97;;;-8.18;100.00
30554;BME280;17335;50.720;7.452;2024-01-11T02:37:15;100646.97;;;-8.18;100.00
30554;BME280;17335;50.720;7.452;2024-01-11T02:39:41;100646.97;;;-8.18;100.00
30554;BME280;17335;50.720;7.452;2024-01-11T02:42:08;100653.91;;;-8.20;100.00
30554;BME280;17335;50.720;7.452;2024-01-11T02:44:34;100648.72;;;-8.25;100.00
30554;BME280;17335;50.720;7.452;2024-01-11T02:47:03;100636.56;;;-8.21;100.00
30554;BME280;17335;50.720;7.452;2024-01-11T02:49:29;100642.63;;;-8.21;100.00
30554;BME280;17335;50.720;7.452;2024-01-11T02:51:56;100634.78;;;-8.25;100.00
30554;BME280;17335;50.720;7.452;2024-01-11T02:54:22;100636.53;;;-8.29;100.00
30554;BME280;17335;50.720;7.452;2024-01-11T02:56:49;100636.50;;;-8.31;100.00
30554;BME280;17335;50.720;7.452;2024-01-11T02:59:15;100636.56;;;-8.24;100.00
30554;BME280;17335;50.720;7.452;2024-01-11T03:01:42;100640.00;;;-8.24;100.00
30554;BME280;17335;50.720;7.452;2024-01-11T03:04:08;100641.75;;;-8.26;100.00
30554;BME280;17335;50.720;7.452;2024-01-11T03:06:35;100638.25;;;-8.31;100.00
30554;BME280;17335;50.720;7.452;2024-01-11T03:09:02;100628.72;;;-8.34;100.00
30554;BME280;17335;50.720;7.452;2024-01-11T03:11:28;100628.69;;;-8.31;100.00
30554;BME280;17335;50.720;7.452;2024-01-11T03:13:55;100626.09;;;-8.31;100.00
30554;BME280;17335;50.720;7.452;2024-01-11T03:16:22;100626.97;;;-8.29;100.00
30554;BME280;17335;50.720;7.452;2024-01-11T03:18:48;100632.19;;;-8.24;100.00
30554;BME280;17335;50.720;7.452;2024-01-11T03:21:15;100623.53;;;-8.23;100.00
30554;BME280;17335;50.720;7.452;2024-01-11T03:23:42;100623.50;;;-8.35;100.00
30554;BME280;17335;50.720;7.452;2024-01-11T03:26:18;100627.81;;;-8.37;100.00
30554;BME280;17335;50.720;7.452;2024-01-11T03:28:44;100626.94;;;-8.41;100.00
30554;BME280;17335;50.720;7.452;2024-01-11T03:31:11;100620.88;;;-8.37;100.00
30554;BME280;17335;50.720;7.452;2024-01-11T03:33:37;100613.06;;;-8.32;100.00
30554;BME280;17335;50.720;7.452;2024-01-11T03:36:09;100608.72;;;-8.35;100.00
30554;BME280;17335;50.720;7.452;2024-01-11T03:38:36;100609.59;;;-8.36;100.00
30554;BME280;17335;50.720;7.452;2024-01-11T03:41:07;100602.66;;;-8.37;100.00
30554;BME280;17335;50.720;7.452;2024-01-11T03:43:35;100606.13;;;-8.32;100.00
30554;BME280;17335;50.720;7.452;2024-01-11T03:46:02;100608.75;;;-8.32;100.00
30554;BME280;17335;50.720;7.452;2024-01-11T03:48:30;100602.69;;;-8.26;100.00
30554;BME280;17335;50.720;7.452;2024-01-11T03:50:56;100600.97;;;-8.15;100.00
30554;BME280;17335;50.720;7.452;2024-01-11T03:53:23;100617.47;;;-8.14;100.00
30554;BME280;17335;50.720;7.452;2024-01-11T03:55:49;100618.31;;;-8.23;100.00
30554;BME280;17335;50.720;7.452;2024-01-11T03:58:16;100624.38;;;-8.25;100.00
30554;BME280;17335;50.720;7.452;2024-01-11T04:00:42;100627.81;;;-8.39;100.00
30554;BME280;17335;50.720;7.452;2024-01-11T04:03:09;100619.16;;;-8.45;100.00
30554;BME280;17335;50.720;7.452;2024-01-11T04:05:35;100618.25;;;-8.46;100.00
30554;BME280;17335;50.720;7.452;2024-01-11T04:08:06;100611.25;;;-8.58;100.00
30554;BME280;17335;50.720;7.452;2024-01-11T04:10:33;100622.53;;;-8.63;100.00
30554;BME280;17335;50.720;7.452;2024-01-11T04:13:00;100611.25;;;-8.64;100.00
30554;BME280;17335;50.720;7.452;2024-01-11T04:15:26;100607.78;;;-8.61;100.00
30554;BME280;17335;50.720;7.452;2024-01-11T04:17:53;100614.69;;;-8.67;100.00
30554;BME280;17335;50.720;7.452;2024-01-11T04:20:19;100626.91;;;-8.59;100.00
30554;BME280;17335;50.720;7.452;2024-01-11T04:22:46;100629.50;;;-8.56;100.00
30554;BME280;17335;50.720;7.452;2024-01-11T04:25:12;100639.97;;;-8.50;100.00
30554;BME280;17335;50.720;7.452;2024-01-11T04:27:39;100637.31;;;-8.56;100.00
30554;BME280;17335;50.720;7.452;2024-01-11T04:30:06;100641.69;;;-8.54;100.00
30554;BME280;17335;50.720;7.452;2024-01-11T04:32:33;100640.81;;;-8.54;100.00
30554;BME280;17335;50.720;7.452;2024-01-11T04:34:59;100639.00;;;-8.68;100.00
30554;BME280;17335;50.720;7.452;2024-01-11T04:37:26;100637.25;;;-8.72;100.00
30554;BME280;17335;50.720;7.452;2024-01-11T04:39:52;100636.38;;;-8.71;100.00
30554;BME280;17335;50.720;7.452;2024-01-11T04:42:19;100636.41;;;-8.61;100.00
30554;BME280;17335;50.720;7.452;2024-01-11T04:44:45;100645.94;;;-8.70;100.00
30554;BME280;17335;50.720;7.452;2024-01-11T04:47:12;100652.91;;;-8.64;100.00
30554;BME280;17335;50.720;7.452;2024-01-11T04:49:38;100654.66;;;-8.58;100.00
30554;BME280;17335;50.720;7.452;2024-01-11T04:52:06;100653.78;;;-8.60;100.00
30554;BME280;17335;50.720;7.452;2024-01-11T04:54:32;100657.22;;;-8.69;100.00
30554;BME280;17335;50.720;7.452;2024-01-11T04:56:58;100654.63;;;-8.69;100.00
30554;BME280;17335;50.720;7.452;2024-01-11T04:59:25;100659.84;;;-8.66;100.00
30554;BME280;17335;50.720;7.452;2024-01-11T05:01:51;100645.06;;;-8.75;100.00
30554;BME280;17335;50.720;7.452;2024-01-11T05:04:18;100662.28;;;-8.92;100.00
30554;BME280;17335;50.720;7.452;2024-01-11T05:06:44;100667.47;;;-8.97;100.00
30554;BME280;17335;50.720;7.452;2024-01-11T05:09:11;100664.91;;;-8.89;100.00
30554;BME280;17335;50.720;7.452;2024-01-11T05:11:59;100662.31;;;-8.89;100.00
30554;BME280;17335;50.720;7.452;2024-01-11T05:14:28;100657.09;;;-8.89;100.00
30554;BME280;17335;50.720;7.452;2024-01-11T05:16:54;100674.50;;;-8.85;100.00
30554;BME280;17335;50.720;7.452;2024-01-11T05:19:21;100673.69;;;-8.75;100.00
30554;BME280;17335;50.720;7.452;2024-01-11T05:21:47;100680.56;;;-8.83;100.00
30554;BME280;17335;50.720;7.452;2024-01-11T05:24:14;100675.41;;;-8.75;100.00
30554;BME280;17335;50.720;7.452;2024-01-11T05:26:40;100675.38;;;-8.83;100.00
30554;BME280;17335;50.720;7.452;2024-01-11T05:29:07;100664.94;;;-8.84;100.00
30554;BME280;17335;50.720;7.452;2024-01-11T05:31:34;100665.84;;;-8.81;100.00
30554;BME280;17335;50.720;7.452;2024-01-11T05:34:00;100670.19;;;-8.74;100.00
30554;BME280;17335;50.720;7.452;2024-01-11T05:36:27;100661.50;;;-8.77;100.00
30554;BME280;17335;50.720;7.452;2024-01-11T05:38:54;100671.91;;;-8.80;100.00
30554;BME280;17335;50.720;7.452;2024-01-11T05:41:20;100671.88;;;-8.82;100.00
30554;BME280;17335;50.720;7.452;2024-01-11T05:43:46;100687.53;;;-8.83;100.00
30554;BME280;17335;50.720;7.452;2024-01-11T05:46:13;100686.66;;;-8.81;100.00
30554;BME280;17335;50.720;7.452;2024-01-11T05:48:40;100690.97;;;-8.83;100.00
30554;BME280;17335;50.720;7.452;2024-01-11T05:51:08;100703.84;;;-9.01;100.00
30554;BME280;17335;50.720;7.452;2024-01-11T05:53:34;100703.78;;;-9.08;100.00
30554;BME280;17335;50.720;7.452;2024-01-11T05:56:10;100703.06;;;-8.93;100.00
30554;BME280;17335;50.720;7.452;2024-01-11T05:58:37;100710.72;;;-9.14;100.00
30554;BME280;17335;50.720;7.452;2024-01-11T06:01:04;100713.22;;;-9.22;100.00
30554;BME280;17335;50.720;7.452;2024-01-11T06:03:31;100712.34;;;-9.24;100.00
30554;BME280;17335;50.720;7.452;2024-01-11T06:06:01;100722.72;;;-9.27;100.00
30554;BME280;17335;50.720;7.452;2024-01-11T06:08:29;100714.91;;;-9.29;100.00
30554;BME280;17335;50.720;7.452;2024-01-11T06:11:00;100710.59;;;-9.28;100.00
30554;BME280;17335;50.720;7.452;2024-01-11T06:13:26;100715.78;;;-9.31;100.00
30554;BME280;17335;50.720;7.452;2024-01-11T06:15:54;100724.44;;;-9.29;100.00
30554;BME280;17335;50.720;7.452;2024-01-11T06:18:20;100738.34;;;-9.27;100.00
30554;BME280;17335;50.720;7.452;2024-01-11T06:20:47;100735.72;;;-9.27;100.00
30554;BME280;17335;50.720;7.452;2024-01-11T06:23:13;100738.34;;;-9.27;100.00
30554;BME280;17335;50.720;7.452;2024-01-11T06:25:40;100745.28;;;-9.26;100.00
30554;BME280;17335;50.720;7.452;2024-01-11T06:28:07;100752.28;;;-9.19;100.00
30554;BME280;17335;50.720;7.452;2024-01-11T06:30:35;100749.63;;;-9.24;100.00
30554;BME280;17335;50.720;7.452;2024-01-11T06:33:02;100753.91;;;-9.30;100.00
30554;BME280;17335;50.720;7.452;2024-01-11T06:35:29;100757.28;;;-9.40;100.00
30554;BME280;17335;50.720;7.452;2024-01-11T06:37:57;100757.25;;;-9.44;100.00
30554;BME280;17335;50.720;7.452;2024-01-11T06:40:24;100740.72;;;-9.50;100.00
30554;BME280;17335;50.720;7.452;2024-01-11T06:42:50;100755.50;;;-9.45;100.00
30554;BME280;17335;50.720;7.452;2024-01-11T06:45:17;100752.00;;;-9.48;100.00
30554;BME280;17335;50.720;7.452;2024-01-11T06:47:43;100755.44;;;-9.51;100.00
30554;BME280;17335;50.720;7.452;2024-01-11T06:50:12;100752.88;;;-9.46;100.00
30554;BME280;17335;50.720;7.452;2024-01-11T06:52:39;100757.28;;;-9.40;100.00
30554;BME280;17335;50.720;7.452;2024-01-11T06:55:06;100755.59;;;-9.35;100.00
30554;BME280;17335;50.720;7.452;2024-01-11T06:57:32;100759.13;;;-9.27;100.00
30554;BME280;17335;50.720;7.452;2024-01-11T06:59:59;100760.94;;;-9.23;100.00
30554;BME280;17335;50.720;7.452;2024-01-11T07:02:25;100779.94;;;-9.27;100.00
30554;BME280;17335;50.720;7.452;2024-01-11T07:04:52;100772.97;;;-9.31;100.00
30554;BME280;17335;50.720;7.452;2024-01-11T07:07:18;100768.59;;;-9.38;100.00
30554;BME280;17335;50.720;7.452;2024-01-11T07:09:45;100766.84;;;-9.38;100.00
30554;BME280;17335;50.720;7.452;2024-01-11T07:12:11;100760.78;;;-9.38;100.00
30554;BME280;17335;50.720;7.452;2024-01-11T07:14:38;100760.75;;;-9.41;100.00
30554;BME280;17335;50.720;7.452;2024-01-11T07:17:04;100757.34;;;-9.34;100.00
30554;BME280;17335;50.720;7.452;2024-01-11T07:19:31;100750.31;;;-9.43;100.00
30554;BME280;17335;50.720;7.452;2024-01-11T07:21:57;100758.97;;;-9.44;100.00
30554;BME280;17335;50.720;7.452;2024-01-11T07:24:24;100752.97;;;-9.38;100.00
30554;BME280;17335;50.720;7.452;2024-01-11T07:26:51;100758.22;;;-9.32;100.00
30554;BME280;17335;50.720;7.452;2024-01-11T07:29:17;100740.06;;;-9.29;100.00
30554;BME280;17335;50.720;7.452;2024-01-11T07:31:44;100746.97;;;-9.31;100.00
30554;BME280;17335;50.720;7.452;2024-01-11T07:34:10;100735.69;;;-9.30;100.00
30554;BME280;17335;50.720;7.452;2024-01-11T07:36:37;100733.16;;;-9.26;100.00
30554;BME280;17335;50.720;7.452;2024-01-11T07:39:04;100740.06;;;-9.29;100.00
30554;BME280;17335;50.720;7.452;2024-01-11T07:41:30;100740.00;;;-9.32;100.00
30554;BME280;17335;50.720;7.452;2024-01-11T07:43:57;100747.88;;;-9.28;100.00
30554;BME280;17335;50.720;7.452;2024-01-11T07:46:25;100753.97;;;-9.24;100.00
30554;BME280;17335;50.720;7.452;2024-01-11T07:49:04;100755.75;;;-9.18;100.00
30554;BME280;17335;50.720;7.452;2024-01-11T07:51:31;100765.34;;;-9.11;100.00
30554;BME280;17335;50.720;7.452;2024-01-11T07:53:57;100769.69;;;-9.10;100.00
30554;BME280;17335;50.720;7.452;2024-01-11T07:56:25;100773.16;;;-9.10;100.00
30554;BME280;17335;50.720;7.452;2024-01-11T07:58:51;100785.22;;;-9.18;100.00
30554;BME280;17335;50.720;7.452;2024-01-11T08:01:18;100783.41;;;-9.28;100.00
30554;BME280;17335;50.720;7.452;2024-01-11T08:03:44;100787.75;;;-9.27;100.00
30554;BME280;17335;50.720;7.452;2024-01-11T08:06:12;100792.03;;;-9.32;100.00
30554;BME280;17335;50.720;7.452;2024-01-11T08:08:39;100811.09;;;-9.33;100.00
30554;BME280;17335;50.720;7.452;2024-01-11T08:11:08;100812.03;;;-9.25;100.00
30554;BME280;17335;50.720;7.452;2024-01-11T08:13:35;100818.13;;;-9.26;100.00
30554;BME280;17335;50.720;7.452;2024-01-11T08:16:04;100805.91;;;-9.30;100.00
30554;BME280;17335;50.720;7.452;2024-01-11T08:18:31;100809.44;;;-9.28;100.00
30554;BME280;17335;50.720;7.452;2024-01-11T08:20:58;100812.94;;;-9.23;100.00
30554;BME280;17335;50.720;7.452;2024-01-11T08:23:24;100804.31;;;-9.19;100.00
30554;BME280;17335;50.720;7.452;2024-01-11T08:25:51;100800.06;;;-9.08;100.00
30554;BME280;17335;50.720;7.452;2024-01-11T08:28:18;100805.25;;;-9.12;100.00
30554;BME280;17335;50.720;7.452;2024-01-11T08:30:46;100806.97;;;-9.10;100.00
30554;BME280;17335;50.720;7.452;2024-01-11T08:33:13;100807.84;;;-9.11;100.00
30554;BME280;17335;50.720;7.452;2024-01-11T08:35:40;100797.47;;;-9.08;100.00
30554;BME280;17335;50.720;7.452;2024-01-11T08:38:07;100810.47;;;-9.08;100.00
30554;BME280;17335;50.720;7.452;2024-01-11T08:40:34;100814.88;;;-8.97;100.00
30554;BME280;17335;50.720;7.452;2024-01-11T08:43:01;100826.25;;;-8.89;100.00
30554;BME280;17335;50.720;7.452;2024-01-11T08:45:28;100831.47;;;-8.89;100.00
30554;BME280;17335;50.720;7.452;2024-01-11T08:47:56;100836.72;;;-8.84;100.00
30554;BME280;17335;50.720;7.452;2024-01-11T08:50:23;100831.50;;;-8.86;100.00
30554;BME280;17335;50.720;7.452;2024-01-11T08:52:52;100813.31;;;-8.83;100.00
30554;BME280;17335;50.720;7.452;2024-01-11T08:55:21;100796.84;;;-8.79;100.00
30554;BME280;17335;50.720;7.452;2024-01-11T08:57:48;100789.09;;;-8.73;100.00
30554;BME280;17335;50.720;7.452;2024-01-11T09:00:14;100791.75;;;-8.65;100.00
30554;BME280;17335;50.720;7.452;2024-01-11T09:02:44;100792.69;;;-8.55;100.00
30554;BME280;17335;50.720;7.452;2024-01-11T09:05:14;100801.44;;;-8.47;100.00
30554;BME280;17335;50.720;7.452;2024-01-11T09:07:40;100791.91;;;-8.39;100.00
30554;BME280;17335;50.720;7.452;2024-01-11T09:10:08;100788.47;;;-8.27;100.00
30554;BME280;17335;50.720;7.452;2024-01-11T09:12:35;100785.94;;;-8.19;100.00
30554;BME280;17335;50.720;7.452;2024-01-11T09:15:02;100795.53;;;-8.11;100.00
30554;BME280;17335;50.720;7.452;2024-01-11T09:17:29;100805.13;;;-8.02;100.00
30554;BME280;17335;50.720;7.452;2024-01-11T09:19:55;100800.00;;;-7.83;100.00
30554;BME280;17335;50.720;7.452;2024-01-11T09:22:22;100807.00;;;-7.76;100.00
30554;BME280;17335;50.720;7.452;2024-01-11T09:24:49;100818.31;;;-7.62;100.00
30554;BME280;17335;50.720;7.452;2024-01-11T09:27:15;100806.19;;;-7.54;100.00
30554;BME280;17335;50.720;7.452;2024-01-11T09:29:47;100814.91;;;-7.45;100.00
30554;BME280;17335;50.720;7.452;2024-01-11T09:32:22;100815.78;;;-7.43;100.00
30554;BME280;17335;50.720;7.452;2024-01-11T09:34:49;100814.06;;;-7.35;100.00
30554;BME280;17335;50.720;7.452;2024-01-11T09:37:17;100822.81;;;-7.27;100.00
30554;BME280;17335;50.720;7.452;2024-01-11T09:39:43;100822.84;;;-7.11;100.00
30554;BME280;17335;50.720;7.452;2024-01-11T09:42:10;100812.38;;;-7.05;100.00
30554;BME280;17335;50.720;7.452;2024-01-11T09:44:37;100819.38;;;-6.93;100.00
30554;BME280;17335;50.720;7.452;2024-01-11T09:47:09;100817.63;;;-6.87;100.00
30554;BME280;17335;50.720;7.452;2024-01-11T09:49:42;100825.47;;;-6.79;100.00
30554;BME280;17335;50.720;7.452;2024-01-11T09:52:11;100825.47;;;-6.57;100.00
30554;BME280;17335;50.720;7.452;2024-01-11T09:54:39;100830.69;;;-6.37;100.00
30554;BME280;17335;50.720;7.452;2024-01-11T09:57:07;100835.91;;;-6.28;100.00
30554;BME280;17335;50.720;7.452;2024-01-11T09:59:35;100843.72;;;-6.17;100.00
30554;BME280;17335;50.720;7.452;2024-01-11T10:02:02;100841.06;;;-6.05;100.00
30554;BME280;17335;50.720;7.452;2024-01-11T10:04:30;100832.38;;;-5.99;100.00
30554;BME280;17335;50.720;7.452;2024-01-11T10:06:57;100836.66;;;-5.91;100.00
30554;BME280;17335;50.720;7.452;2024-01-11T10:09:24;100836.63;;;-5.83;100.00
30554;BME280;17335;50.720;7.452;2024-01-11T10:11:50;100827.03;;;-5.78;100.00
30554;BME280;17335;50.720;7.452;2024-01-11T10:14:20;100825.25;;;-5.71;100.00
30554;BME280;17335;50.720;7.452;2024-01-11T10:16:47;100813.88;;;-5.64;100.00
30554;BME280;17335;50.720;7.452;2024-01-11T10:19:14;100809.53;;;-5.62;100.00
30554;BME280;17335;50.720;7.452;2024-01-11T10:21:43;100808.63;;;-5.55;100.00
30554;BME280;17335;50.720;7.452;2024-01-11T10:24:09;100794.63;;;-5.49;100.00
30554;BME280;17335;50.720;7.452;2024-01-11T10:26:36;100794.63;;;-5.46;100.00
30554;BME280;17335;50.720;7.452;2024-01-11T10:29:02;100804.13;;;-5.28;100.00
30554;BME280;17335;50.720;7.452;2024-01-11T10:31:30;100805.75;;;-5.09;100.00
30554;BME280;17335;50.720;7.452;2024-01-11T10:33:57;100795.22;;;-5.04;100.00
30554;BME280;17335;50.720;7.452;2024-01-11T10:36:23;100778.53;;;-4.87;100.00
30554;BME280;17335;50.720;7.452;2024-01-11T10:38:52;100782.84;;;-4.80;100.00
30554;BME280;17335;50.720;7.452;2024-01-11T10:41:23;100786.16;;;-4.61;100.00
30554;BME280;17335;50.720;7.452;2024-01-11T10:43:51;100791.28;;;-4.47;100.00
30554;BME280;17335;50.720;7.452;2024-01-11T10:46:22;100792.09;;;-4.39;100.00
30554;BME280;17335;50.720;7.452;2024-01-11T10:48:55;100785.03;;;-4.31;100.00
30554;BME280;17335;50.720;7.452;2024-01-11T10:51:25;100789.31;;;-4.22;100.00
30554;BME280;17335;50.720;7.452;2024-01-11T10:53:53;100786.72;;;-4.27;100.00
30554;BME280;17335;50.720;7.452;2024-01-11T10:56:20;100787.50;;;-4.17;100.00
30554;BME280;17335;50.720;7.452;2024-01-11T10:58:47;100778.81;;;-4.21;100.00
30554;BME280;17335;50.720;7.452;2024-01-11T11:01:16;100784.78;;;-4.09;100.00
30554;BME280;17335;50.720;7.452;2024-01-11T11:03:43;100775.06;;;-4.00;100.00
30554;BME280;17335;50.720;7.452;2024-01-11T11:06:11;100781.97;;;-3.91;100.00
30554;BME280;17335;50.720;7.452;2024-01-11T11:08:39;100790.63;;;-3.84;100.00
30554;BME280;17335;50.720;7.452;2024-01-11T11:11:06;100780.94;;;-3.78;100.00
30554;BME280;17335;50.720;7.452;2024-01-11T11:13:34;100782.59;;;-3.70;100.00
30554;BME280;17335;50.720;7.452;2024-01-11T11:16:04;100771.84;;;-3.52;100.00
30554;BME280;17335;50.720;7.452;2024-01-11T11:18:35;100782.34;;;-3.52;100.00
30554;BME280;17335;50.720;7.452;2024-01-11T11:21:10;100770.88;;;-3.45;100.00
30554;BME280;17335;50.720;7.452;2024-01-11T11:23:39;100781.38;;;-3.45;100.00
30554;BME280;17335;50.720;7.452;2024-01-11T11:26:06;100784.84;;;-3.43;100.00
30554;BME280;17335;50.720;7.452;2024-01-11T11:28:35;100787.41;;;-3.36;100.00
30554;BME280;17335;50.720;7.452;2024-01-11T11:31:03;100790.84;;;-3.33;100.00
30554;BME280;17335;50.720;7.452;2024-01-11T11:33:29;100774.94;;;-3.22;100.00
30554;BME280;17335;50.720;7.452;2024-01-11T11:35:58;100790.66;;;-3.19;100.00
30554;BME280;17335;50.720;7.452;2024-01-11T11:38:27;100789.69;;;-3.15;100.00
30554;BME280;17335;50.720;7.452;2024-01-11T11:40:57;100786.06;;;-3.06;100.00
30554;BME280;17335;50.720;7.452;2024-01-11T11:43:24;100779.72;;;-2.91;100.00
30554;BME280;17335;50.720;7.452;2024-01-11T11:45:52;100785.84;;;-2.92;100.00
30554;BME280;17335;50.720;7.452;2024-01-11T11:53:37;100775.19;;;-2.81;100.00
30554;BME280;17335;50.720;7.452;2024-01-11T11:56:04;100773.31;;;-2.73;100.00
30554;BME280;17335;50.720;7.452;2024-01-11T11:58:32;100775.03;;;-2.72;100.00
30554;BME280;17335;50.720;7.452;2024-01-11T12:01:00;100777.56;;;-2.65;100.00
30554;BME280;17335;50.720;7.452;2024-01-11T12:03:30;100775.75;;;-2.62;100.00
30554;BME280;17335;50.720;7.452;2024-01-11T12:05:58;100769.50;;;-2.57;100.00
30554;BME280;17335;50.720;7.452;2024-01-11T12:08:26;100760.78;;;-2.57;100.00
30554;BME280;17335;50.720;7.452;2024-01-11T12:10:53;100761.41;;;-2.45;100.00
30554;BME280;17335;50.720;7.452;2024-01-11T12:13:20;100757.88;;;-2.43;100.00
30554;BME280;17335;50.720;7.452;2024-01-11T12:15:47;100762.91;;;-2.30;100.00
30554;BME280;17335;50.720;7.452;2024-01-11T12:18:13;100762.72;;;-2.20;100.00
30554;BME280;17335;50.720;7.452;2024-01-11T12:20:40;100760.09;;;-2.22;100.00
30554;BME280;17335;50.720;7.452;2024-01-11T12:23:07;100761.59;;;-2.07;100.00
30554;BME280;17335;50.720;7.452;2024-01-11T12:25:34;100764.16;;;-2.04;100.00
30554;BME280;17335;50.720;7.452;2024-01-11T12:28:01;100751.94;;;-2.08;100.00
30554;BME280;17335;50.720;7.452;2024-01-11T12:30:28;100753.59;;;-2.01;100.00
30554;BME280;17335;50.720;7.452;2024-01-11T12:32:56;100755.19;;;-1.94;100.00
30554;BME280;17335;50.720;7.452;2024-01-11T12:35:24;100745.50;;;-1.92;100.00
30554;BME280;17335;50.720;7.452;2024-01-11T12:40:20;100732.34;;;-1.93;100.00
30554;BME280;17335;50.720;7.452;2024-01-11T12:42:47;100734.69;;;-1.79;100.00
30554;BME280;17335;50.720;7.452;2024-01-11T12:45:16;100723.38;;;-1.83;100.00
30554;BME280;17335;50.720;7.452;2024-01-11T12:47:43;100728.59;;;-1.80;100.00